CheckWX is a tool to help pilots better visualize weather data.  It is not intended as a substitute for an official pre-flight weather briefing.

05:58:47 UTC

KSHR TAF
Sheridan County Airport
Sheridan, Wyoming, USA
KSHR 240529Z 2406/2506 32018KT 3SM -SN BR OVC020 TEMPO 2408/2411 1SM -SN BR BKN010 OVC020 FM241100 33006KT P6SM VCSH BKN030 OVC050 FM242100 01007KT 2SM -SN BR BKN015 OVC025

Feb-24@
06:00 UTC

Feb-24 @ 06:00 UTC

Feb-24@
11:00 UTC

Feb-24 @ 11:00 UTC

KSHR 240529Z 2406/2506 32018KT 3SM -SN BR OVC020
Wind
  • 320° at 18 KTS
Conditions
Light Snow, Mist
Cloud Levels
  • Overcast at 2,000' AGL

Feb-24@
08:00 UTC

Feb-24 @ 08:00 UTC

Feb-24@
11:00 UTC

Feb-24 @ 11:00 UTC

TEMPO 2408/2411 1SM -SN BR BKN010 OVC020

Temporary

Temporary Changes expected for less than half the time period

Conditions
Light Snow, Mist
Cloud Levels
  • Broken at 1,000' AGL
  • Overcast at 2,000' AGL

Feb-24@
11:00 UTC

Feb-24 @ 11:00 UTC

Feb-24@
21:00 UTC

Feb-24 @ 21:00 UTC

FM241100 33006KT P6SM VCSH BKN030 OVC050

From

From Standard forecast or significant change

Wind
  • 330° at 6 KTS
Cloud Levels
  • Broken at 3,000' AGL
  • Overcast at 5,000' AGL

Feb-24@
21:00 UTC

Feb-24 @ 21:00 UTC

Feb-25@
06:00 UTC

Feb-25 @ 06:00 UTC

FM242100 01007KT 2SM -SN BR BKN015 OVC025

From

From Standard forecast or significant change

Wind
  • 010° at 7 KTS
Conditions
Light Snow, Mist
Cloud Levels
  • Broken at 1,500' AGL
  • Overcast at 2,500' AGL